Time;durP1;ratioP1;P1;durP2;ratioP2;P2;SDS_P1;SDS_P2;PMS_P1;PMS_P2;Temp;Humidity;BMP_temperature;BMP_pressure;BME280_temperature;BME280_humidity;BME280_pressure;Samples;Min_cycle;Max_cycle;Signal;HPM_P1;HPM_P2
2024/03/31 00:00:44;;;;;;;7.35;2.17;;;9.30;99.90;;;;;;5068905;28;20392;-83
2024/03/31 00:03:09;;;;;;;4.20;2.03;;;10.20;99.90;;;;;;5048763;28;20386;-84
2024/03/31 00:05:35;;;;;;;7.68;2.70;;;;;;;;;;5061105;28;20397;-83
2024/03/31 00:08:01;;;;;;;5.43;2.40;;;9.50;99.90;;;;;;5061798;28;20412;-83
2024/03/31 00:10:27;;;;;;;5.90;2.30;;;;;;;;;;5062335;28;20381;-83
2024/03/31 00:12:52;;;;;;;10.27;2.70;;;10.00;99.90;;;;;;5043524;28;20388;-83
2024/03/31 00:15:18;;;;;;;11.03;2.70;;;9.30;99.90;;;;;;5051349;28;20423;-83
2024/03/31 00:17:43;;;;;;;7.17;2.70;;;9.30;99.90;;;;;;5071266;28;20392;-82
2024/03/31 00:20:09;;;;;;;8.20;2.70;;;9.70;99.90;;;;;;5052734;28;20393;-82
2024/03/31 00:22:34;;;;;;;6.13;2.28;;;9.50;99.90;;;;;;5070111;28;20409;-82
2024/03/31 00:25:00;;;;;;;6.17;2.27;;;9.70;99.90;;;;;;5064746;28;20412;-84
2024/03/31 00:27:26;;;;;;;8.33;2.50;;;9.30;99.90;;;;;;5062495;28;20413;-84
2024/03/31 00:29:51;;;;;;;9.45;2.78;;;9.60;99.90;;;;;;5045337;28;20417;-84
2024/03/31 00:32:17;;;;;;;6.30;2.50;;;9.30;99.90;;;;;;5063503;28;20385;-84
2024/03/31 00:34:42;;;;;;;8.52;2.47;;;9.90;99.90;;;;;;5040375;28;20893;-83
2024/03/31 00:37:08;;;;;;;7.40;2.63;;;;;;;;;;5062564;28;20385;-84
2024/03/31 00:39:34;;;;;;;9.02;4.20;;;9.50;99.90;;;;;;5045712;28;20793;-83
2024/03/31 00:42:00;;;;;;;9.23;5.90;;;;;;;;;;5063737;28;20757;-84
2024/03/31 00:44:26;;;;;;;8.13;5.68;;;;;;;;;;5063851;28;20385;-84
2024/03/31 00:46:52;;;;;;;8.48;6.07;;;9.70;99.90;;;;;;5064183;28;20412;-84
2024/03/31 00:49:17;;;;;;;10.10;6.20;;;9.60;99.90;;;;;;5064591;28;20394;-84
2024/03/31 00:51:43;;;;;;;11.00;6.35;;;10.30;99.90;;;;;;5044998;28;20392;-84
2024/03/31 00:54:10;;;;;;;8.45;6.60;;;;;;;;;;5045421;28;20389;-85
2024/03/31 00:56:36;;;;;;;11.18;6.72;;;9.60;99.90;;;;;;5063474;28;20412;-82
2024/03/31 00:59:02;;;;;;;8.77;7.30;;;9.70;99.90;;;;;;5064417;28;20389;-83
2024/03/31 01:01:28;;;;;;;14.32;8.27;;;;;;;;;;5064083;28;20481;-82
2024/03/31 01:03:53;;;;;;;10.67;7.80;;;10.20;99.90;;;;;;5063405;28;20388;-82
2024/03/31 01:06:20;;;;;;;11.13;8.03;;;9.70;99.90;;;;;;5063730;28;20420;-82
2024/03/31 01:08:47;;;;;;;13.02;8.75;;;9.50;99.90;;;;;;5063469;28;20468;-82
2024/03/31 01:11:14;;;;;;;14.35;8.68;;;9.90;99.90;;;;;;5064272;28;20389;-83
2024/03/31 01:13:40;;;;;;;11.60;8.95;;;9.30;99.90;;;;;;5046338;28;20404;-82
2024/03/31 01:16:06;;;;;;;13.23;8.45;;;9.50;99.90;;;;;;5064650;28;20758;-82
2024/03/31 01:18:33;;;;;;;13.00;9.23;;;10.50;99.90;;;;;;5064314;28;20393;-81
2024/03/31 01:20:59;;;;;;;11.73;10.00;;;;;;;;;;5046438;28;20439;-81
2024/03/31 01:23:28;;;;;;;11.82;10.30;;;9.00;99.90;;;;;;5046002;28;20377;-82
2024/03/31 01:26:00;;;;;;;11.95;9.60;;;9.70;99.90;;;;;;5045227;28;20493;-82
2024/03/31 01:28:26;;;;;;;14.63;10.83;;;9.60;99.90;;;;;;5041401;28;20381;-82
2024/03/31 01:30:52;;;;;;;17.20;10.50;;;;;;;;;;5061757;28;20378;-82
2024/03/31 01:33:18;;;;;;;12.18;10.57;;;9.80;99.90;;;;;;5070171;28;20399;-82
2024/03/31 01:35:44;;;;;;;12.65;10.48;;;;;;;;;;5069596;28;20380;-82
2024/03/31 01:38:11;;;;;;;11.43;10.13;;;9.20;99.90;;;;;;5071245;28;20408;-83
2024/03/31 01:40:36;;;;;;;19.08;10.65;;;9.10;99.90;;;;;;5064737;28;20389;-83
2024/03/31 01:43:02;;;;;;;14.73;10.80;;;;;;;;;;5040770;28;20796;-83
2024/03/31 01:45:28;;;;;;;13.73;10.35;;;9.10;99.90;;;;;;5061641;28;20403;-83
2024/03/31 01:47:53;;;;;;;14.10;10.27;;;9.30;99.90;;;;;;5059827;28;20412;-84
2024/03/31 01:50:20;;;;;;;15.90;10.68;;;9.50;99.90;;;;;;5063028;28;20468;-84
2024/03/31 01:52:46;;;;;;;14.27;10.55;;;9.60;99.90;;;;;;5063392;28;20431;-83
2024/03/31 01:55:11;;;;;;;12.02;10.45;;;8.70;99.90;;;;;;5044726;28;20382;-83
2024/03/31 01:57:37;;;;;;;13.20;10.20;;;9.40;99.90;;;;;;5062674;28;20404;-83
2024/03/31 02:00:03;;;;;;;14.57;9.97;;;9.00;99.90;;;;;;5063234;28;20382;-83
2024/03/31 02:02:28;;;;;;;14.53;9.40;;;9.40;99.90;;;;;;5062263;28;20387;-83
2024/03/31 02:04:54;;;;;;;15.10;9.40;;;9.00;99.90;;;;;;5062907;28;20385;-85
2024/03/31 02:07:20;;;;;;;13.60;9.18;;;9.20;99.90;;;;;;5064156;28;20504;-84
2024/03/31 02:09:46;;;;;;;15.57;10.77;;;8.90;99.90;;;;;;5064658;28;20862;-83
2024/03/31 02:12:11;;;;;;;14.13;10.17;;;9.30;99.90;;;;;;5047456;28;20446;-83
2024/03/31 02:14:37;;;;;;;14.25;9.85;;;9.30;99.90;;;;;;5066724;28;20381;-83
2024/03/31 02:17:03;;;;;;;15.10;9.95;;;;;;;;;;5046943;28;20441;-83
2024/03/31 02:19:28;;;;;;;14.68;10.70;;;;;;;;;;5066671;28;20412;-83
2024/03/31 02:21:54;;;;;;;15.15;10.30;;;9.40;99.90;;;;;;5047634;28;20390;-83
2024/03/31 02:24:20;;;;;;;15.48;10.38;;;8.80;99.90;;;;;;5065529;28;20397;-83
2024/03/31 02:26:45;;;;;;;15.77;9.20;;;8.90;99.90;;;;;;5064975;28;20455;-83
2024/03/31 02:29:11;;;;;;;13.03;8.73;;;9.40;99.90;;;;;;5065311;28;20447;-82
2024/03/31 02:31:36;;;;;;;12.70;8.80;;;10.20;99.90;;;;;;5064951;28;20377;-82
2024/03/31 02:34:03;;;;;;;15.18;8.32;;;9.10;99.90;;;;;;5046776;28;20388;-82
2024/03/31 02:36:28;;;;;;;11.38;6.90;;;9.00;99.90;;;;;;5070689;28;20417;-83
2024/03/31 02:38:54;;;;;;;9.77;7.00;;;;;;;;;;5057741;28;20431;-83
2024/03/31 02:41:20;;;;;;;12.10;7.53;;;10.40;99.90;;;;;;5074856;28;20382;-83
2024/03/31 02:43:45;;;;;;;12.60;8.00;;;9.00;99.90;;;;;;5057155;28;20410;-82
2024/03/31 02:46:11;;;;;;;8.93;6.80;;;9.10;99.90;;;;;;5065838;28;21055;-83
2024/03/31 02:48:36;;;;;;;11.30;7.53;;;9.00;99.90;;;;;;5066163;28;20444;-83
2024/03/31 02:51:02;;;;;;;12.80;7.30;;;;;;;;;;5065563;28;20382;-83
2024/03/31 02:53:28;;;;;;;12.55;7.30;;;;;;;;;;5047908;28;20427;-83
2024/03/31 02:55:54;;;;;;;13.15;8.20;;;9.40;99.90;;;;;;5065346;28;20865;-83
2024/03/31 02:58:19;;;;;;;12.50;6.57;;;9.30;99.90;;;;;;5064879;28;20984;-83
2024/03/31 03:00:45;;;;;;;15.10;6.43;;;8.90;99.90;;;;;;5047432;28;20473;-82
2024/03/31 03:03:10;;;;;;;11.77;6.10;;;8.90;99.90;;;;;;5047582;28;20454;-83
2024/03/31 03:05:36;;;;;;;13.70;6.60;;;9.10;99.90;;;;;;5042408;28;20933;-83
2024/03/31 03:08:01;;;;;;;11.20;6.57;;;9.20;99.90;;;;;;5060649;28;20425;-83
2024/03/31 03:10:27;;;;;;;13.90;6.93;;;;;;;;;;5046168;28;20396;-83
2024/03/31 03:12:53;;;;;;;12.37;6.97;;;8.50;99.90;;;;;;5046321;28;20996;-83
2024/03/31 03:15:18;;;;;;;13.97;8.00;;;8.40;99.90;;;;;;5064056;28;20428;-83
2024/03/31 03:17:46;;;;;;;9.13;6.50;;;8.80;99.90;;;;;;5062743;28;20464;-83
2024/03/31 03:20:12;;;;;;;10.85;7.10;;;8.70;99.90;;;;;;5064660;28;20446;-82
2024/03/31 03:22:38;;;;;;;11.40;8.03;;;9.20;99.90;;;;;;5069424;28;20435;-83
2024/03/31 03:25:03;;;;;;;15.85;8.13;;;9.10;99.90;;;;;;5068132;28;20393;-83
2024/03/31 03:27:29;;;;;;;16.13;7.70;;;8.90;99.90;;;;;;5067069;28;20405;-83
2024/03/31 03:29:55;;;;;;;15.90;8.00;;;8.50;99.90;;;;;;5067697;28;20384;-83
2024/03/31 03:32:21;;;;;;;15.48;7.55;;;8.50;99.90;;;;;;5072042;28;20401;-84
2024/03/31 03:34:46;;;;;;;14.07;7.88;;;8.60;99.90;;;;;;5067572;28;20437;-83
2024/03/31 03:37:12;;;;;;;13.70;7.53;;;8.80;99.90;;;;;;5067339;28;20389;-83
2024/03/31 03:39:39;;;;;;;12.70;8.05;;;9.10;99.90;;;;;;5050640;28;20393;-83
2024/03/31 03:42:04;;;;;;;13.33;8.00;;;8.80;99.90;;;;;;5067857;28;20385;-82
2024/03/31 03:44:30;;;;;;;14.90;7.27;;;8.70;99.90;;;;;;5049691;28;20396;-83
2024/03/31 03:46:56;;;;;;;16.37;8.07;;;9.00;99.90;;;;;;5066554;28;20435;-83
2024/03/31 03:49:21;;;;;;;17.40;7.40;;;8.60;99.90;;;;;;5067016;28;20979;-83
2024/03/31 03:51:47;;;;;;;13.85;6.82;;;9.10;99.90;;;;;;5074984;28;20416;-82
2024/03/31 03:54:12;;;;;;;16.73;7.10;;;9.40;99.90;;;;;;5060866;28;20397;-82
2024/03/31 03:56:41;;;;;;;13.30;7.40;;;9.00;99.90;;;;;;5074114;28;20393;-83
2024/03/31 03:59:06;;;;;;;12.45;6.60;;;9.10;99.90;;;;;;5050062;28;20393;-82
2024/03/31 04:01:32;;;;;;;12.40;6.38;;;8.80;99.90;;;;;;5067428;28;20396;-83
2024/03/31 04:03:57;;;;;;;11.70;6.57;;;9.00;99.90;;;;;;5066497;28;20388;-83
2024/03/31 04:06:23;;;;;;;14.17;6.40;;;9.00;99.90;;;;;;5066306;28;20425;-82
2024/03/31 04:08:48;;;;;;;14.02;7.13;;;8.70;99.90;;;;;;5048135;28;20400;-82
2024/03/31 04:11:24;;;;;;;13.10;7.70;;;8.80;99.90;;;;;;5048409;28;20382;-81
2024/03/31 04:13:50;;;;;;;15.65;7.22;;;8.60;99.90;;;;;;5065769;28;20389;-82
2024/03/31 04:16:15;;;;;;;13.77;6.82;;;8.80;99.90;;;;;;5065724;28;20386;-82
2024/03/31 04:18:42;;;;;;;12.52;7.40;;;;;;;;;;5065504;28;20396;-82
2024/03/31 04:21:08;;;;;;;16.73;7.63;;;8.70;99.90;;;;;;5048749;28;20401;-82
2024/03/31 04:23:34;;;;;;;16.17;7.50;;;8.50;99.90;;;;;;5064733;28;20431;-83
2024/03/31 04:25:59;;;;;;;9.88;6.60;;;8.60;99.90;;;;;;5065426;28;20413;-83
2024/03/31 04:28:25;;;;;;;14.13;7.03;;;8.70;99.90;;;;;;5064631;28;20392;-83
2024/03/31 04:30:50;;;;;;;16.17;7.63;;;8.60;99.90;;;;;;5065744;28;20397;-82
2024/03/31 04:33:16;;;;;;;11.52;7.50;;;8.90;99.90;;;;;;5064569;28;20381;-83
2024/03/31 04:35:41;;;;;;;10.57;7.30;;;8.70;99.90;;;;;;5060205;28;20504;-83
2024/03/31 04:38:07;;;;;;;12.50;7.00;;;;;;;;;;5061057;28;20479;-83
2024/03/31 04:40:33;;;;;;;13.10;7.10;;;8.60;99.90;;;;;;5065643;28;20416;-84
2024/03/31 04:42:59;;;;;;;9.90;6.33;;;8.30;99.90;;;;;;5064306;28;20915;-82
2024/03/31 04:45:25;;;;;;;12.73;6.53;;;;;;;;;;5046624;28;20832;-83
2024/03/31 04:47:50;;;;;;;10.27;6.17;;;;;;;;;;5095902;23;20493;-83
2024/03/31 04:50:17;;;;;;;9.35;5.85;;;8.90;99.90;;;;;;5059238;28;20423;-82
2024/03/31 04:52:43;;;;;;;10.60;5.75;;;8.90;99.90;;;;;;5058310;28;20374;-82
2024/03/31 04:55:09;;;;;;;10.27;5.10;;;8.80;99.90;;;;;;5057904;28;20396;-82
2024/03/31 04:57:34;;;;;;;14.80;5.87;;;8.60;99.90;;;;;;5064712;28;20534;-81
2024/03/31 05:00:00;;;;;;;13.40;5.67;;;8.30;99.90;;;;;;5083451;28;20380;-82
2024/03/31 05:02:25;;;;;;;13.80;6.25;;;8.50;99.90;;;;;;5065770;28;20471;-81
2024/03/31 05:04:51;;;;;;;11.20;6.43;;;8.20;99.90;;;;;;5064491;28;20483;-83
2024/03/31 05:07:17;;;;;;;14.70;5.80;;;8.00;99.90;;;;;;5061696;28;21033;-84
2024/03/31 05:09:43;;;;;;;14.07;6.63;;;;;;;;;;5061478;28;20922;-83
2024/03/31 05:12:09;;;;;;;14.60;5.55;;;;;;;;;;5080671;28;20384;-82
2024/03/31 05:14:35;;;;;;;12.27;6.25;;;8.40;99.90;;;;;;5083636;28;20416;-82
2024/03/31 05:17:03;;;;;;;12.70;5.75;;;8.00;99.90;;;;;;5064698;28;20391;-82
2024/03/31 05:19:28;;;;;;;11.50;5.50;;;8.20;99.90;;;;;;5083280;28;20414;-82
2024/03/31 05:21:54;;;;;;;11.70;5.80;;;7.90;99.90;;;;;;5082966;28;20387;-82
2024/03/31 05:24:19;;;;;;;7.77;5.33;;;8.40;99.90;;;;;;5082969;28;20380;-82
2024/03/31 05:26:45;;;;;;;14.00;5.13;;;7.90;99.90;;;;;;5084639;28;20403;-82
2024/03/31 05:29:11;;;;;;;10.43;4.53;;;;;;;;;;5084043;28;20392;-83
2024/03/31 05:31:36;;;;;;;10.55;4.90;;;8.40;99.90;;;;;;5078171;28;20871;-83
2024/03/31 05:34:05;;;;;;;10.30;4.25;;;7.90;99.90;;;;;;5077839;28;20409;-82
2024/03/31 05:36:30;;;;;;;8.75;4.93;;;8.30;99.90;;;;;;5081211;28;20747;-84
2024/03/31 05:38:56;;;;;;;11.98;4.70;;;7.90;99.90;;;;;;5056804;28;20419;-82
2024/03/31 05:41:22;;;;;;;9.70;4.40;;;8.30;99.90;;;;;;5074000;28;20424;-82
2024/03/31 05:43:48;;;;;;;10.43;4.50;;;8.40;99.90;;;;;;5075928;28;20398;-83
2024/03/31 05:46:13;;;;;;;9.57;4.60;;;8.10;99.90;;;;;;5075442;28;20899;-83
2024/03/31 05:48:39;;;;;;;11.23;5.30;;;8.20;99.90;;;;;;5073565;28;20408;-82
2024/03/31 05:51:04;;;;;;;6.95;4.72;;;8.20;99.90;;;;;;5073298;28;20376;-82
2024/03/31 05:53:30;;;;;;;11.70;4.40;;;;;;;;;;5055328;28;20399;-82
2024/03/31 05:55:56;;;;;;;11.45;4.50;;;8.20;99.90;;;;;;5076285;28;20368;-81
2024/03/31 05:58:21;;;;;;;8.73;3.90;;;8.40;99.90;;;;;;5075060;28;20383;-83
2024/03/31 06:00:48;;;;;;;13.87;5.33;;;8.80;99.90;;;;;;5076851;28;20441;-82
2024/03/31 06:03:14;;;;;;;10.60;4.53;;;;;;;;;;5057854;28;20379;-83
2024/03/31 06:05:39;;;;;;;8.13;4.70;;;8.50;99.90;;;;;;5058235;28;20905;-83
2024/03/31 06:08:05;;;;;;;8.50;4.47;;;8.40;99.90;;;;;;5076418;28;20430;-82
2024/03/31 06:10:31;;;;;;;8.00;3.85;;;;;;;;;;5059013;28;20390;-82
2024/03/31 06:12:57;;;;;;;7.43;4.43;;;8.60;99.90;;;;;;5056993;28;20383;-84
2024/03/31 06:15:22;;;;;;;6.60;3.97;;;8.80;99.90;;;;;;5058002;28;20448;-81
2024/03/31 06:17:48;;;;;;;8.40;4.03;;;8.40;99.90;;;;;;5075970;28;20379;-83
2024/03/31 06:20:13;;;;;;;5.80;3.63;;;7.90;99.90;;;;;;5076274;28;20415;-82
2024/03/31 06:22:39;;;;;;;9.70;3.90;;;;;;;;;;5079173;28;20813;-82
2024/03/31 06:25:06;;;;;;;12.30;4.07;;;;;;;;;;5073943;28;20962;-82
2024/03/31 06:27:32;;;;;;;11.80;4.20;;;9.20;99.90;;;;;;5074416;28;20407;-83
2024/03/31 06:29:57;;;;;;;10.53;3.90;;;9.20;99.90;;;;;;5061523;28;20372;-81
2024/03/31 06:32:23;;;;;;;10.63;3.40;;;;;;;;;;5081939;28;20403;-82
2024/03/31 06:34:51;;;;;;;9.23;3.63;;;9.60;99.90;;;;;;5063706;28;20399;-82
2024/03/31 06:37:17;;;;;;;7.55;3.05;;;8.90;99.90;;;;;;5056836;28;20395;-83
2024/03/31 06:39:43;;;;;;;14.35;4.15;;;8.90;99.90;;;;;;5059957;28;20388;-83
2024/03/31 06:42:09;;;;;;;9.43;3.60;;;;;;;;;;5055483;28;20888;-82
2024/03/31 06:44:35;;;;;;;10.40;3.67;;;;;;;;;;5080540;28;20382;-82
2024/03/31 06:47:01;;;;;;;11.07;3.70;;;;;;;;;;5081121;28;20449;-83
2024/03/31 06:49:27;;;;;;;11.55;4.55;;;;;;;;;;5073283;28;20384;-83
2024/03/31 06:51:53;;;;;;;13.45;4.85;;;9.80;99.90;;;;;;5074621;28;20416;-82
2024/03/31 06:54:19;;;;;;;10.63;4.28;;;8.90;99.90;;;;;;5086663;28;20380;-84
2024/03/31 06:56:44;;;;;;;12.52;4.13;;;;;;;;;;5064815;28;20379;-82
2024/03/31 06:59:11;;;;;;;11.05;4.70;;;;;;;;;;5079647;28;20384;-83
2024/03/31 07:01:37;;;;;;;11.50;6.30;;;;;;;;;;5077402;28;20388;-83
2024/03/31 07:04:03;;;;;;;11.70;5.60;;;;;;;;;;5078465;28;21096;-83
2024/03/31 07:06:29;;;;;;;21.20;7.88;;;;;;;;;;5078361;28;20439;-83
2024/03/31 07:08:54;;;;;;;12.63;6.00;;;9.50;99.90;;;;;;5078019;28;20402;-81
2024/03/31 07:11:20;;;;;;;14.88;7.30;;;;;;;;;;5078611;28;20387;-81
2024/03/31 07:13:46;;;;;;;13.93;7.45;;;;;;;;;;5059182;28;20383;-81
2024/03/31 07:16:12;;;;;;;16.35;7.28;;;9.20;99.90;;;;;;5078560;28;20392;-81
2024/03/31 07:18:37;;;;;;;12.93;7.55;;;9.60;99.90;;;;;;5079128;28;20383;-81
2024/03/31 07:21:03;;;;;;;13.23;6.30;;;;;;;;;;5084738;28;20395;-83
2024/03/31 07:23:29;;;;;;;10.82;6.55;;;9.60;99.90;;;;;;5081431;28;20903;-80
2024/03/31 07:25:56;;;;;;;13.60;6.78;;;8.90;99.90;;;;;;5080977;28;20439;-82
2024/03/31 07:28:24;;;;;;;13.45;7.05;;;8.60;99.90;;;;;;5079301;28;20901;-85
2024/03/31 07:30:50;;;;;;;11.47;6.80;;;9.50;99.90;;;;;;5078369;28;20390;-83
2024/03/31 07:33:15;;;;;;;16.07;7.53;;;9.00;99.90;;;;;;5060129;28;20376;-84
2024/03/31 07:35:41;;;;;;;12.68;7.30;;;;;;;;;;5078997;28;20923;-84
2024/03/31 07:38:07;;;;;;;14.23;7.05;;;8.70;99.90;;;;;;5077718;28;20440;-83
2024/03/31 07:40:33;;;;;;;12.50;7.47;;;;;;;;;;5059878;28;20455;-81
2024/03/31 07:42:59;;;;;;;18.48;7.10;;;;;;;;;;5076129;28;20392;-82
2024/03/31 07:45:24;;;;;;;11.07;7.15;;;9.20;99.90;;;;;;5076275;28;20429;-84
2024/03/31 07:47:50;;;;;;;16.00;7.50;;;;;;;;;;5077893;28;20826;-81
2024/03/31 07:50:17;;;;;;;14.02;6.85;;;;;;;;;;5081034;28;20391;-82
2024/03/31 07:52:43;;;;;;;10.20;5.95;;;;;;;;;;5080760;28;20368;-82
2024/03/31 07:55:09;;;;;;;18.60;6.70;;;9.10;99.90;;;;;;5066789;28;20384;-81
2024/03/31 07:57:35;;;;;;;14.05;6.15;;;;;;;;;;5067800;28;20384;-79
2024/03/31 08:00:01;;;;;;;13.32;5.88;;;;;;;;;;5090211;28;20375;-83
2024/03/31 08:02:26;;;;;;;8.38;5.53;;;8.80;99.90;;;;;;5082612;28;20802;-82
2024/03/31 08:04:52;;;;;;;11.20;5.80;;;9.20;99.90;;;;;;5077433;28;20388;-82
2024/03/31 08:07:18;;;;;;;11.85;5.85;;;;;;;;;;5086884;28;20459;-83
2024/03/31 08:09:43;;;;;;;10.93;6.80;;;9.70;99.90;;;;;;5061168;28;20364;-82
2024/03/31 08:12:09;;;;;;;13.13;6.50;;;10.00;99.90;;;;;;5078406;28;20387;-83
2024/03/31 08:14:34;;;;;;;12.57;6.57;;;9.60;99.90;;;;;;5060579;28;20950;-82
2024/03/31 08:17:00;;;;;;;14.80;6.60;;;9.40;99.90;;;;;;5076355;28;20384;-83
2024/03/31 08:19:25;;;;;;;10.52;6.10;;;;;;;;;;5077150;28;20383;-82
2024/03/31 08:21:51;;;;;;;11.48;7.40;;;10.00;99.90;;;;;;5076643;28;20391;-82
2024/03/31 08:24:17;;;;;;;12.90;6.17;;;9.50;99.90;;;;;;5075562;28;20449;-82
2024/03/31 08:26:44;;;;;;;14.23;5.90;;;10.20;99.90;;;;;;5056340;28;20400;-82
2024/03/31 08:29:10;;;;;;;15.02;6.47;;;;;;;;;;5057878;28;20470;-83
2024/03/31 08:31:35;;;;;;;15.48;6.25;;;10.40;99.90;;;;;;5075581;28;20394;-83
2024/03/31 08:34:01;;;;;;;10.77;5.95;;;10.50;99.90;;;;;;5057308;28;20372;-82
2024/03/31 08:36:27;;;;;;;12.17;5.70;;;9.60;99.90;;;;;;5074263;28;20399;-82
2024/03/31 08:38:52;;;;;;;11.30;5.20;;;9.50;99.90;;;;;;5075649;28;20392;-83
2024/03/31 08:41:47;;;;;;;12.23;5.20;;;9.60;99.90;;;;;;5056947;28;20454;-82
2024/03/31 08:44:16;;;;;;;11.23;5.68;;;10.00;99.90;;;;;;5075068;28;20419;-83
2024/03/31 08:46:42;;;;;;;9.90;5.30;;;10.70;99.90;;;;;;5074776;28;20403;-83
2024/03/31 08:49:08;;;;;;;14.23;6.85;;;;;;;;;;5056613;28;20438;-82
2024/03/31 08:51:34;;;;;;;15.43;6.78;;;10.50;99.90;;;;;;5078359;28;20386;-83
2024/03/31 08:54:00;;;;;;;15.32;6.40;;;;;;;;;;5056297;28;20950;-82
2024/03/31 08:56:26;;;;;;;12.38;7.60;;;;;;;;;;5055668;28;20891;-82
2024/03/31 08:58:52;;;;;;;16.20;7.47;;;9.40;99.90;;;;;;5056292;28;20400;-83
2024/03/31 09:01:21;;;;;;;12.77;6.70;;;9.50;99.90;;;;;;5075300;28;20491;-82
2024/03/31 09:03:47;;;;;;;11.57;7.28;;;;;;;;;;5057928;28;20455;-83
2024/03/31 09:06:13;;;;;;;15.60;8.68;;;;;;;;;;5056900;28;20442;-82
2024/03/31 09:08:38;;;;;;;10.48;7.03;;;10.40;99.90;;;;;;5058655;28;20379;-81
2024/03/31 09:11:07;;;;;;;13.20;6.73;;;;;;;;;;5076293;28;20389;-81
2024/03/31 09:13:35;;;;;;;12.40;7.10;;;;;;;;;;5056283;28;20380;-82
2024/03/31 09:16:00;;;;;;;14.43;7.00;;;;;;;;;;5055189;28;20400;-81
2024/03/31 09:18:26;;;;;;;12.48;6.88;;;10.50;99.90;;;;;;5081652;28;20375;-82
2024/03/31 09:20:52;;;;;;;14.13;7.83;;;10.10;99.90;;;;;;5091173;28;20469;-81
2024/03/31 09:23:17;;;;;;;14.75;7.00;;;10.70;99.90;;;;;;5093823;28;20382;-82
2024/03/31 09:25:43;;;;;;;15.97;7.50;;;10.00;99.90;;;;;;5074969;28;20768;-82
2024/03/31 09:28:09;;;;;;;12.43;6.50;;;;;;;;;;5056924;28;20498;-82
2024/03/31 09:30:35;;;;;;;13.17;7.07;;;;;;;;;;5076454;28;20386;-83
2024/03/31 09:33:02;;;;;;;11.85;6.93;;;10.30;99.90;;;;;;5075632;28;20374;-83
2024/03/31 09:35:28;;;;;;;15.02;6.45;;;10.50;99.90;;;;;;5057335;28;20394;-81
2024/03/31 09:37:54;;;;;;;15.05;6.97;;;;;;;;;;5077309;28;20379;-83
2024/03/31 09:40:20;;;;;;;13.10;6.93;;;10.20;99.90;;;;;;5076892;28;20407;-81
2024/03/31 09:42:46;;;;;;;12.73;6.75;;;;;;;;;;5078410;28;20816;-82
2024/03/31 09:45:12;;;;;;;13.38;6.80;;;;;;;;;;5081045;28;20740;-85
2024/03/31 09:47:44;;;;;;;14.70;6.35;;;10.40;99.90;;;;;;5078295;28;20411;-85
2024/03/31 09:50:22;;;;;;;14.02;7.40;;;;;;;;;;5075491;28;20914;-83
2024/03/31 09:52:52;;;;;;;11.20;6.55;;;10.30;99.90;;;;;;5074703;28;20385;-83
2024/03/31 09:55:24;;;;;;;14.63;6.95;;;;;;;;;;5078241;28;20387;-82
2024/03/31 09:57:52;;;;;;;13.48;6.53;;;10.60;99.90;;;;;;5067579;28;20463;-81
2024/03/31 10:00:18;;;;;;;17.00;7.20;;;;;;;;;;5096836;28;20379;-80
2024/03/31 10:03:12;;;;;;;12.90;6.95;;;11.10;99.90;;;;;;5094995;28;20400;-81
2024/03/31 10:05:40;;;;;;;11.57;6.80;;;11.00;99.90;;;;;;5079559;28;20403;-79
2024/03/31 10:08:09;;;;;;;13.82;6.57;;;10.90;99.90;;;;;;5092835;28;20523;-80
2024/03/31 10:10:36;;;;;;;11.55;5.97;;;;;;;;;;5081777;28;20388;-80
2024/03/31 10:13:03;;;;;;;9.10;5.95;;;;;;;;;;5082937;28;20501;-81
2024/03/31 10:15:29;;;;;;;9.35;6.10;;;;;;;;;;5051128;28;20780;-82
2024/03/31 10:17:56;;;;;;;13.02;8.00;;;10.80;99.90;;;;;;5058739;28;20379;-82
2024/03/31 10:20:22;;;;;;;18.00;7.60;;;10.00;99.90;;;;;;5075813;28;20729;-82
2024/03/31 10:22:48;;;;;;;16.60;7.10;;;10.90;99.90;;;;;;5073502;28;20452;-82
2024/03/31 10:25:14;;;;;;;14.00;6.90;;;;;;;;;;5055444;28;20384;-82
2024/03/31 10:27:44;;;;;;;16.90;7.35;;;;;;;;;;5069274;28;20408;-82
2024/03/31 10:30:10;;;;;;;16.08;7.70;;;;;;;;;;5049478;28;20415;-83
2024/03/31 10:32:37;;;;;;;14.40;7.57;;;;;;;;;;5077538;28;20387;-83
2024/03/31 10:35:04;;;;;;;16.75;7.88;;;10.60;99.90;;;;;;5090849;28;20378;-81
2024/03/31 10:37:32;;;;;;;12.85;7.20;;;10.80;99.90;;;;;;5093124;28;20391;-80
2024/03/31 10:39:59;;;;;;;15.20;6.82;;;10.90;99.90;;;;;;5084026;28;20898;-82
2024/03/31 10:42:25;;;;;;;13.73;7.15;;;11.10;99.90;;;;;;5066460;28;20400;-81
2024/03/31 10:44:52;;;;;;;18.85;7.53;;;10.10;99.90;;;;;;5089785;28;20410;-81
2024/03/31 10:47:18;;;;;;;12.38;7.28;;;;;;;;;;5107461;22;20417;-80
2024/03/31 10:49:44;;;;;;;13.18;7.47;;;;;;;;;;5034675;28;20379;-80
2024/03/31 10:52:14;;;;;;;16.47;7.27;;;;;;;;;;5017494;28;20383;-80
2024/03/31 10:54:41;;;;;;;15.68;8.15;;;;;;;;;;5035197;28;20371;-80
2024/03/31 10:57:11;;;;;;;11.57;7.20;;;;;;;;;;5032724;28;20379;-81
2024/03/31 10:59:41;;;;;;;15.65;7.70;;;11.20;99.90;;;;;;5034131;28;20461;-81
2024/03/31 11:02:15;;;;;;;11.73;7.43;;;11.20;99.90;;;;;;5017871;28;20383;-83
2024/03/31 11:04:42;;;;;;;8.88;6.35;;;11.10;99.90;;;;;;5035666;28;20395;-81
2024/03/31 11:07:11;;;;;;;13.90;7.72;;;11.50;99.90;;;;;;5033694;28;20411;-80
2024/03/31 11:09:37;;;;;;;15.98;8.18;;;;;;;;;;5035738;28;20387;-80
2024/03/31 11:12:05;;;;;;;13.32;6.50;;;10.70;99.90;;;;;;5036322;28;20395;-81
2024/03/31 11:14:33;;;;;;;13.30;6.80;;;10.70;99.90;;;;;;5035380;28;20415;-81
2024/03/31 11:17:00;;;;;;;9.85;6.03;;;11.30;99.90;;;;;;5035063;28;20752;-79
2024/03/31 11:19:26;;;;;;;12.45;6.63;;;;;;;;;;5033708;28;20473;-80
2024/03/31 11:21:57;;;;;;;11.60;7.10;;;11.60;99.90;;;;;;5035683;28;20383;-81
2024/03/31 11:24:23;;;;;;;8.90;6.75;;;;;;;;;;5033122;28;20391;-80
2024/03/31 11:26:51;;;;;;;12.02;6.70;;;;;;;;;;5033162;28;20768;-81
2024/03/31 11:29:17;;;;;;;12.85;7.15;;;;;;;;;;5036818;28;20387;-80
2024/03/31 11:31:44;;;;;;;12.55;7.35;;;11.90;99.90;;;;;;5038658;28;20433;-79
2024/03/31 11:34:10;;;;;;;11.43;6.03;;;11.20;99.90;;;;;;5019998;28;20397;-81
2024/03/31 11:36:36;;;;;;;12.35;6.07;;;11.70;99.90;;;;;;5038250;28;20398;-80
2024/03/31 11:39:02;;;;;;;9.73;5.53;;;;;;;;;;5034948;28;20383;-81
2024/03/31 11:41:28;;;;;;;9.48;5.32;;;;;;;;;;5034920;28;20406;-82
2024/03/31 11:43:54;;;;;;;7.88;5.00;;;12.20;99.90;;;;;;5035371;28;20387;-82
2024/03/31 11:46:19;;;;;;;10.52;5.20;;;12.30;99.90;;;;;;5035738;28;20434;-82
2024/03/31 11:48:45;;;;;;;12.77;6.10;;;;;;;;;;5017933;28;20399;-81
2024/03/31 11:51:12;;;;;;;10.07;5.37;;;12.70;99.90;;;;;;5034205;28;20383;-81
2024/03/31 11:53:38;;;;;;;11.20;5.60;;;;;;;;;;5035287;28;20394;-80
2024/03/31 11:56:07;;;;;;;12.20;5.70;;;;;;;;;;5033891;28;20383;-81
2024/03/31 11:58:37;;;;;;;10.27;5.40;;;;;;;;;;5035831;28;20371;-81
2024/03/31 12:01:02;;;;;;;10.32;5.15;;;12.40;99.90;;;;;;5034730;28;20445;-81
2024/03/31 12:03:28;;;;;;;11.75;5.05;;;12.20;99.90;;;;;;5017426;28;20384;-81
2024/03/31 12:05:54;;;;;;;9.45;5.47;;;;;;;;;;5016981;28;20953;-80
2024/03/31 12:08:21;;;;;;;9.90;5.10;;;;;;;;;;5034674;28;20398;-81
2024/03/31 12:10:47;;;;;;;11.55;5.65;;;12.00;99.90;;;;;;5032875;28;20391;-80
2024/03/31 12:13:13;;;;;;;9.88;5.00;;;12.50;99.90;;;;;;5016297;28;20380;-79
2024/03/31 12:15:40;;;;;;;8.32;5.05;;;;;;;;;;5034156;28;20390;-81
2024/03/31 12:18:06;;;;;;;11.10;5.40;;;;;;;;;;5034747;28;20387;-80
2024/03/31 12:20:32;;;;;;;10.90;5.60;;;;;;;;;;5036538;28;20383;-82
2024/03/31 12:22:58;;;;;;;11.77;5.37;;;12.60;99.90;;;;;;5032683;28;20444;-81
2024/03/31 12:25:24;;;;;;;11.50;5.53;;;11.40;99.90;;;;;;5034924;28;20462;-82
2024/03/31 12:27:50;;;;;;;15.63;5.50;;;;;;;;;;5034257;28;20438;-81
2024/03/31 12:30:15;;;;;;;9.35;5.40;;;13.50;99.90;;;;;;5034920;28;20432;-80
2024/03/31 12:32:41;;;;;;;15.07;5.60;;;14.30;99.90;;;;;;5016054;28;20861;-81
2024/03/31 12:35:07;;;;;;;7.53;4.70;;;;;;;;;;5034613;28;21006;-79
2024/03/31 12:37:37;;;;;;;10.07;4.72;;;13.70;99.90;;;;;;5033805;28;20422;-82
2024/03/31 12:40:04;;;;;;;8.60;4.65;;;13.90;99.90;;;;;;5033657;28;20875;-80
2024/03/31 12:42:30;;;;;;;8.13;4.85;;;14.30;99.90;;;;;;5015600;28;20432;-80
2024/03/31 12:44:58;;;;;;;10.70;5.22;;;14.80;99.90;;;;;;5015968;28;20903;-80
2024/03/31 12:47:28;;;;;;;8.57;5.00;;;14.40;99.90;;;;;;5033060;28;20927;-79
2024/03/31 12:49:56;;;;;;;10.18;4.30;;;15.70;99.90;;;;;;5014952;28;20478;-80
2024/03/31 12:52:22;;;;;;;9.60;4.47;;;;;;;;;;5032446;28;20413;-80
2024/03/31 12:54:48;;;;;;;15.20;5.00;;;14.70;99.90;;;;;;5031469;28;20562;-79
2024/03/31 12:57:14;;;;;;;9.87;4.33;;;;;;;;;;5016169;28;20899;-80
2024/03/31 12:59:40;;;;;;;10.10;4.80;;;14.80;99.90;;;;;;5033682;28;20423;-80
2024/03/31 13:02:07;;;;;;;11.37;4.70;;;;;;;;;;5033171;28;20422;-80
2024/03/31 13:04:32;;;;;;;9.23;4.20;;;14.50;99.90;;;;;;5032373;28;20387;-79
2024/03/31 13:06:58;;;;;;;11.30;4.35;;;15.10;99.90;;;;;;5033076;28;20452;-81
2024/03/31 13:09:24;;;;;;;15.63;4.60;;;;;;;;;;5033839;28;20387;-80